Time;durP1;ratioP1;P1;durP2;ratioP2;P2;SDS_P1;SDS_P2;PMS_P1;PMS_P2;Temp;Humidity;BMP_temperature;BMP_pressure;BME280_temperature;BME280_humidity;BME280_pressure;Samples;Min_cycle;Max_cycle;Signal;HPM_P1;HPM_P2
2023/05/20 00:02:35;;;;;;;29.00;24.10;;;;;;;13.67;100.00;101156.84;181055;1259;43890;-84
2023/05/20 00:06:39;;;;;;;28.80;20.80;;;;;;;13.69;100.00;101153.16;181048;1258;43886;-83
2023/05/20 00:10:42;;;;;;;27.50;23.60;;;;;;;13.67;100.00;101145.80;181276;1259;57737;-84
2023/05/20 00:14:46;;;;;;;24.80;20.50;;;;;;;13.71;100.00;101140.33;181209;1258;44214;-84
2023/05/20 00:18:49;;;;;;;33.50;23.80;;;;;;;13.73;100.00;101138.91;181159;1258;43998;-84
2023/05/20 00:22:53;;;;;;;31.60;22.30;;;;;;;13.73;100.00;101143.41;181154;1259;43980;-84
2023/05/20 00:26:56;;;;;;;27.40;23.20;;;;;;;13.68;100.00;101147.17;181025;1258;43713;-83
2023/05/20 00:30:59;;;;;;;33.80;23.70;;;;;;;13.66;100.00;101154.25;181146;1258;58081;-83
2023/05/20 00:35:03;;;;;;;36.20;22.50;;;;;;;13.65;100.00;101153.27;181193;1260;44663;-83
2023/05/20 00:39:06;;;;;;;33.90;22.30;;;;;;;13.66;100.00;101158.21;181139;1259;44090;-84
2023/05/20 00:43:10;;;;;;;26.20;22.50;;;;;;;13.66;100.00;101153.39;181233;1258;44184;-84
2023/05/20 00:47:24;;;;;;;29.80;23.70;;;;;;;13.62;100.00;101151.91;181279;1258;44032;-83
2023/05/20 00:51:28;;;;;;;32.60;22.10;;;;;;;13.60;100.00;101152.30;181149;1258;59599;-84
2023/05/20 00:55:31;;;;;;;30.90;24.10;;;;;;;13.62;100.00;101153.69;181041;1259;44168;-83
2023/05/20 00:59:36;;;;;;;30.10;21.90;;;;;;;13.66;100.00;101149.63;181060;1259;43924;-83
2023/05/20 01:03:40;;;;;;;29.50;25.20;;;;;;;13.71;100.00;101145.16;181047;1259;44043;-83
2023/05/20 01:07:44;;;;;;;32.40;22.50;;;;;;;13.73;100.00;101146.40;181106;1259;43823;-83
2023/05/20 01:11:51;;;;;;;30.40;22.90;;;;;;;13.72;100.00;101144.13;181126;1260;59242;-83
2023/05/20 01:15:55;;;;;;;30.60;22.10;;;;;;;13.75;100.00;101141.06;181201;1258;44019;-83
2023/05/20 01:20:00;;;;;;;28.20;21.10;;;;;;;13.73;100.00;101144.45;181121;1258;44037;-83
2023/05/20 01:24:04;;;;;;;27.30;22.30;;;;;;;13.72;100.00;101142.39;181095;1259;43845;-83
2023/05/20 01:28:08;;;;;;;29.40;22.00;;;;;;;13.70;100.00;101144.66;181046;1259;44009;-83
2023/05/20 01:32:37;;;;;;;33.20;22.60;;;;;;;13.73;100.00;101141.80;181093;1259;58344;-83
2023/05/20 01:36:40;;;;;;;34.40;23.50;;;;;;;13.73;100.00;101137.51;181128;1260;44096;-84
2023/05/20 01:40:46;;;;;;;30.50;22.30;;;;;;;13.72;100.00;101132.93;181154;1259;43868;-84
2023/05/20 01:44:48;;;;;;;32.40;21.40;;;;;;;13.72;100.00;101134.34;181040;1258;43847;-83
2023/05/20 01:48:51;;;;;;;30.30;23.10;;;;;;;13.70;100.00;101136.11;181222;1259;43781;-83
2023/05/20 01:52:55;;;;;;;31.50;21.20;;;;;;;13.69;100.00;101138.68;181335;1258;58002;-83
2023/05/20 01:56:58;;;;;;;30.40;21.80;;;;;;;13.67;100.00;101136.73;181243;1259;43837;-83
2023/05/20 02:01:02;;;;;;;28.60;21.20;;;;;;;13.66;100.00;101142.33;181089;1258;44074;-84
2023/05/20 02:05:05;;;;;;;30.50;22.40;;;;;;;13.62;100.00;101140.58;181097;1258;44016;-83
2023/05/20 02:09:08;;;;;;;32.70;22.80;;;;;;;13.60;100.00;101148.36;181214;1259;43975;-83
2023/05/20 02:13:12;;;;;;;29.60;23.90;;;;;;;13.60;100.00;101147.84;181013;1258;59099;-83
2023/05/20 02:17:16;;;;;;;29.50;22.40;;;;;;;13.59;100.00;101146.10;181138;1258;44038;-84
2023/05/20 02:21:20;;;;;;;29.80;22.80;;;;;;;13.58;100.00;101149.40;181035;1259;43870;-83
2023/05/20 02:25:22;;;;;;;34.60;24.70;;;;;;;13.59;100.00;101146.86;181256;1258;43839;-85
2023/05/20 02:29:26;;;;;;;34.30;23.10;;;;;;;13.59;100.00;101144.35;181374;1259;43776;-85
2023/05/20 02:33:29;;;;;;;36.70;25.90;;;;;;;13.62;100.00;101141.77;181132;1257;58639;-85
2023/05/20 02:37:33;;;;;;;30.10;23.30;;;;;;;13.60;100.00;101145.65;181232;1258;43963;-85
2023/05/20 02:41:36;;;;;;;30.30;22.60;;;;;;;13.57;100.00;101146.12;181285;1258;44004;-85
2023/05/20 02:45:39;;;;;;;28.90;22.60;;;;;;;13.55;100.00;101147.13;181131;1258;43989;-85
2023/05/20 02:49:43;;;;;;;32.10;21.40;;;;;;;13.51;100.00;101147.08;181184;1259;43761;-85
2023/05/20 02:53:47;;;;;;;35.70;23.90;;;;;;;13.52;100.00;101147.67;181075;1260;59166;-85
2023/05/20 02:57:50;;;;;;;29.80;23.90;;;;;;;13.52;100.00;101143.61;181217;1260;44104;-85
2023/05/20 03:01:53;;;;;;;31.50;20.80;;;;;;;13.50;100.00;101146.27;181127;1259;43748;-85
2023/05/20 03:05:56;;;;;;;31.70;24.30;;;;;;;13.49;100.00;101147.63;181175;1259;44043;-85
2023/05/20 03:10:01;;;;;;;41.10;24.20;;;;;;;13.46;100.00;101141.25;181014;1259;43762;-85
2023/05/20 03:14:04;;;;;;;33.80;23.40;;;;;;;13.46;100.00;101146.27;180998;1259;59807;-86
2023/05/20 03:18:07;;;;;;;35.20;25.40;;;;;;;13.45;100.00;101150.39;181110;1259;43844;-85
2023/05/20 03:22:11;;;;;;;36.20;23.10;;;;;;;13.46;100.00;101151.77;181027;1260;44120;-86
2023/05/20 03:26:14;;;;;;;35.30;22.70;;;;;;;13.42;100.00;101150.81;180944;1258;44295;-84
2023/05/20 03:30:17;;;;;;;31.60;22.80;;;;;;;13.42;100.00;101145.80;181020;1259;44150;-85
2023/05/20 03:34:21;;;;;;;31.30;22.80;;;;;;;13.45;100.00;101144.21;180930;1260;58569;-85
2023/05/20 03:38:25;;;;;;;32.20;23.30;;;;;;;13.44;100.00;101148.36;181018;1259;44372;-86
2023/05/20 03:42:28;;;;;;;32.50;24.60;;;;;;;13.44;100.00;101149.59;181115;1258;44434;-85
2023/05/20 03:46:33;;;;;;;34.20;23.90;;;;;;;13.43;100.00;101144.34;180978;1259;43829;-85
2023/05/20 03:50:36;;;;;;;33.00;25.10;;;;;;;13.44;100.00;101146.73;180944;1260;44048;-85
2023/05/20 03:54:39;;;;;;;34.00;23.10;;;;;;;13.47;100.00;101157.53;180990;1259;58019;-85
2023/05/20 03:58:42;;;;;;;30.40;23.00;;;;;;;13.49;100.00;101160.05;180958;1258;43941;-85
2023/05/20 04:02:45;;;;;;;35.40;24.10;;;;;;;13.53;100.00;101158.30;181104;1260;43756;-85
2023/05/20 04:06:49;;;;;;;34.00;23.70;;;;;;;13.60;100.00;101163.30;181169;1257;44371;-86
2023/05/20 04:10:56;;;;;;;31.40;22.80;;;;;;;13.67;100.00;101167.73;181121;1258;44188;-86
2023/05/20 04:15:02;;;;;;;32.40;23.40;;;;;;;13.78;100.00;101168.86;180990;1259;57763;-86
2023/05/20 04:19:06;;;;;;;27.90;22.50;;;;;;;13.83;100.00;101174.43;180980;1259;43960;-85
2023/05/20 04:23:09;;;;;;;30.40;24.90;;;;;;;13.84;100.00;101172.91;181036;1258;44079;-85
2023/05/20 04:27:12;;;;;;;34.20;22.90;;;;;;;13.87;100.00;101166.67;181040;1259;43919;-85
2023/05/20 04:31:16;;;;;;;31.40;21.40;;;;;;;13.90;100.00;101169.11;180958;1259;44097;-85
2023/05/20 04:35:19;;;;;;;29.20;21.30;;;;;;;13.92;100.00;101171.80;180972;1259;59580;-85
2023/05/20 04:39:22;;;;;;;25.60;19.80;;;;;;;13.93;100.00;101174.71;181061;1260;43931;-85
2023/05/20 04:43:28;;;;;;;28.30;21.90;;;;;;;13.92;100.00;101179.80;181215;1258;43921;-85
2023/05/20 04:47:37;;;;;;;29.20;20.20;;;;;;;13.92;100.00;101184.23;180998;1257;43848;-86
2023/05/20 04:51:40;;;;;;;31.50;20.50;;;;;;;13.94;100.00;101181.48;181000;1258;44015;-86
2023/05/20 04:55:45;;;;;;;25.10;19.10;;;;;;;13.97;100.00;101185.86;180816;1259;197216;-85
2023/05/20 04:59:48;;;;;;;29.10;21.80;;;;;;;14.01;100.00;101182.82;180992;1259;43735;-86
2023/05/20 05:03:51;;;;;;;30.00;19.60;;;;;;;14.07;100.00;101180.92;180964;1260;44068;-85
2023/05/20 05:07:54;;;;;;;26.20;19.70;;;;;;;14.06;100.00;101179.05;181024;1259;46751;-85
2023/05/20 05:11:57;;;;;;;30.70;21.00;;;;;;;14.10;100.00;101182.80;181000;1259;43733;-86
2023/05/20 05:16:02;;;;;;;24.80;19.30;;;;;;;14.11;100.00;101183.58;181005;1262;59897;-85
2023/05/20 05:20:07;;;;;;;31.20;21.10;;;;;;;14.10;100.00;101176.95;180960;1259;44146;-85
2023/05/20 05:24:10;;;;;;;24.90;18.90;;;;;;;14.10;100.00;101173.88;180982;1257;44027;-85
2023/05/20 05:28:13;;;;;;;27.80;20.00;;;;;;;14.16;100.00;101176.61;180945;1258;44163;-85
2023/05/20 05:32:16;;;;;;;27.20;19.90;;;;;;;14.23;100.00;101176.89;180988;1260;44154;-85
2023/05/20 05:36:19;;;;;;;28.00;19.50;;;;;;;14.23;100.00;101180.36;181107;1260;57931;-86
2023/05/20 05:40:23;;;;;;;30.10;20.90;;;;;;;14.25;100.00;101180.71;180903;1259;43850;-85
2023/05/20 05:44:26;;;;;;;27.60;20.20;;;;;;;14.25;100.00;101182.85;181005;1258;43764;-85
2023/05/20 05:48:29;;;;;;;37.70;28.80;;;;;;;14.25;100.00;101181.05;181207;1260;44197;-86
2023/05/20 05:52:32;;;;;;;26.70;17.60;;;;;;;14.17;100.00;101180.28;180974;1259;44093;-84
2023/05/20 05:56:35;;;;;;;22.40;18.00;;;;;;;14.10;100.00;101183.63;181106;1258;56914;-83
2023/05/20 06:00:38;;;;;;;21.40;16.30;;;;;;;14.15;100.00;101175.29;181036;1260;43873;-83
2023/05/20 06:04:41;;;;;;;22.60;17.10;;;;;;;14.20;100.00;101181.85;180968;1260;44265;-83
2023/05/20 06:08:44;;;;;;;24.90;18.30;;;;;;;14.23;100.00;101178.92;180974;1259;43682;-83
2023/05/20 06:12:48;;;;;;;25.70;17.90;;;;;;;14.25;100.00;101186.77;181163;1258;43933;-83
2023/05/20 06:16:51;;;;;;;33.40;21.00;;;;;;;14.23;100.00;101189.74;180957;1259;58610;-83
2023/05/20 06:20:56;;;;;;;23.90;16.60;;;;;;;14.26;100.00;101188.84;180966;1259;43931;-83
2023/05/20 06:25:01;;;;;;;27.60;18.20;;;;;;;14.29;100.00;101183.56;181022;1259;43894;-83
2023/05/20 06:29:04;;;;;;;25.30;17.60;;;;;;;14.22;100.00;101179.48;181231;1259;44091;-84
2023/05/20 06:33:07;;;;;;;28.40;17.30;;;;;;;14.18;100.00;101174.10;181037;1259;44125;-84
2023/05/20 06:37:10;;;;;;;29.40;22.90;;;;;;;14.20;100.00;101177.37;181006;1260;57898;-84
2023/05/20 06:41:14;;;;;;;25.50;17.10;;;;;;;14.21;100.00;101184.09;180969;1261;43882;-83
2023/05/20 06:45:17;;;;;;;23.80;16.80;;;;;;;14.20;100.00;101177.52;181075;1260;43747;-83
2023/05/20 06:49:20;;;;;;;21.50;16.60;;;;;;;14.28;100.00;101184.55;181141;1258;44054;-83
2023/05/20 06:53:23;;;;;;;25.20;20.20;;;;;;;14.37;100.00;101187.86;180956;1260;43884;-83
2023/05/20 06:57:26;;;;;;;21.90;17.40;;;;;;;14.44;100.00;101184.64;181020;1260;57900;-83
2023/05/20 07:01:29;;;;;;;28.50;19.80;;;;;;;14.46;100.00;101183.81;180957;1260;44155;-84
2023/05/20 07:05:32;;;;;;;24.90;16.60;;;;;;;14.53;100.00;101179.77;181111;1259;44078;-84
2023/05/20 07:09:36;;;;;;;35.40;18.70;;;;;;;14.60;100.00;101177.95;181040;1260;43876;-83
2023/05/20 07:13:40;;;;;;;27.50;18.80;;;;;;;14.62;100.00;101185.80;181058;1260;43724;-83
2023/05/20 07:17:42;;;;;;;26.90;20.20;;;;;;;14.62;100.00;101180.10;181080;1260;59723;-83
2023/05/20 07:21:46;;;;;;;28.20;18.80;;;;;;;14.61;100.00;101181.59;180971;1260;44153;-84
2023/05/20 07:25:49;;;;;;;26.30;18.90;;;;;;;14.59;100.00;101178.36;180993;1259;44841;-83
2023/05/20 07:29:52;;;;;;;29.70;19.50;;;;;;;14.65;100.00;101174.54;181046;1258;44140;-83
2023/05/20 07:33:55;;;;;;;27.00;19.60;;;;;;;14.68;100.00;101176.90;180940;1259;43781;-83
2023/05/20 07:37:58;;;;;;;46.70;35.10;;;;;;;14.75;100.00;101175.45;181007;1259;57997;-83
2023/05/20 07:42:01;;;;;;;29.10;21.10;;;;;;;14.78;100.00;101174.40;181005;1261;43790;-83
2023/05/20 07:46:04;;;;;;;27.40;19.60;;;;;;;14.71;100.00;101180.05;180908;1261;43874;-84
2023/05/20 07:50:08;;;;;;;29.30;20.50;;;;;;;14.70;100.00;101174.64;181039;1257;44037;-83
2023/05/20 07:54:11;;;;;;;35.20;21.40;;;;;;;14.75;100.00;101172.97;181152;1259;44170;-82
2023/05/20 07:58:14;;;;;;;32.40;19.60;;;;;;;14.84;100.00;101173.23;180900;1258;59255;-83
2023/05/20 08:02:17;;;;;;;31.70;19.70;;;;;;;14.93;100.00;101164.80;181082;1261;44016;-83
2023/05/20 08:06:21;;;;;;;31.50;18.30;;;;;;;15.03;99.91;101158.63;181097;1258;44204;-83
2023/05/20 08:10:24;;;;;;;26.70;18.40;;;;;;;15.09;99.35;101148.48;180970;1260;44004;-82
2023/05/20 08:14:26;;;;;;;28.60;20.70;;;;;;;15.19;99.36;101145.41;181158;1257;43862;-83
2023/05/20 08:18:31;;;;;;;30.20;20.00;;;;;;;15.24;98.75;101144.24;181007;1260;59338;-84
2023/05/20 08:22:36;;;;;;;30.30;21.70;;;;;;;15.27;99.01;101149.55;180955;1260;44057;-82
2023/05/20 08:26:39;;;;;;;28.90;20.90;;;;;;;15.33;98.15;101156.54;181112;1261;44025;-82
2023/05/20 08:30:43;;;;;;;28.20;21.20;;;;;;;15.40;98.04;101155.55;181053;1260;43876;-83
2023/05/20 08:34:48;;;;;;;30.60;20.10;;;;;;;15.47;98.47;101142.42;181139;1257;44185;-82
2023/05/20 08:38:51;;;;;;;31.00;20.70;;;;;;;15.52;97.95;101139.30;181146;1259;59511;-83
2023/05/20 08:42:54;;;;;;;28.80;21.60;;;;;;;15.63;98.14;101135.91;181205;1260;43791;-83
2023/05/20 08:46:58;;;;;;;27.40;20.90;;;;;;;15.70;97.37;101136.29;181194;1260;44305;-83
2023/05/20 08:51:03;;;;;;;29.90;18.90;;;;;;;15.74;97.89;101136.98;181278;1259;43837;-84
2023/05/20 08:55:10;;;;;;;35.50;21.70;;;;;;;15.80;96.45;101140.09;181210;1260;43870;-84
2023/05/20 08:59:14;;;;;;;29.20;19.50;;;;;;;15.83;95.77;101133.73;181119;1260;58272;-85
2023/05/20 09:03:19;;;;;;;29.60;22.10;;;;;;;15.91;95.03;101130.36;181051;1260;43820;-85
2023/05/20 09:07:28;;;;;;;29.10;20.00;;;;;;;16.05;96.12;101126.36;180969;1258;44191;-84
2023/05/20 09:11:32;;;;;;;30.50;21.90;;;;;;;16.21;93.53;101124.23;180924;1260;44303;-85
2023/05/20 09:15:36;;;;;;;32.70;22.20;;;;;;;16.37;94.36;101121.82;180857;1259;44165;-85
2023/05/20 09:19:40;;;;;;;25.80;19.30;;;;;;;16.52;92.84;101119.74;180970;1259;58308;-85
2023/05/20 09:23:48;;;;;;;28.50;21.60;;;;;;;16.61;90.27;101121.48;181181;1259;43827;-85
2023/05/20 09:27:51;;;;;;;28.30;20.40;;;;;;;16.64;89.08;101122.72;181014;1259;43811;-85
2023/05/20 09:31:55;;;;;;;26.50;18.90;;;;;;;16.68;89.72;101114.69;181010;1259;43867;-84
2023/05/20 09:36:07;;;;;;;26.20;18.50;;;;;;;16.69;89.59;101109.52;181101;1259;43989;-86
2023/05/20 09:40:12;;;;;;;29.20;20.70;;;;;;;16.84;89.64;101105.79;180986;1259;58343;-85
2023/05/20 09:44:17;;;;;;;26.80;19.20;;;;;;;17.02;88.30;101106.00;181045;1260;44077;-85
2023/05/20 09:48:21;;;;;;;25.50;20.60;;;;;;;17.13;87.11;101107.19;181075;1260;44351;-84
2023/05/20 09:52:25;;;;;;;23.40;18.50;;;;;;;17.22;87.35;101111.59;181079;1259;44070;-85
2023/05/20 09:56:30;;;;;;;24.60;18.30;;;;;;;17.31;86.71;101104.91;180954;1259;43868;-85
2023/05/20 10:00:34;;;;;;;30.90;19.10;;;;;;;17.39;85.51;101102.92;181091;1258;58338;-85
2023/05/20 10:04:43;;;;;;;32.40;20.70;;;;;;;17.57;85.52;101102.30;181058;1259;44121;-85
2023/05/20 10:09:08;;;;;;;22.30;18.60;;;;;;;17.75;84.75;101100.70;181036;1260;43894;-85
2023/05/20 10:13:49;;;;;;;31.20;19.20;;;;;;;17.91;83.51;101094.46;181028;1259;43895;-85
2023/05/20 10:17:55;;;;;;;26.20;18.70;;;;;;;17.99;82.21;101092.17;180426;1267;43889;-85
2023/05/20 10:22:03;;;;;;;26.60;17.90;;;;;;;17.99;82.67;101089.53;180339;1267;59767;-85
2023/05/20 10:26:06;;;;;;;20.60;15.10;;;;;;;18.04;83.44;101090.43;180142;1267;43979;-85
2023/05/20 10:30:20;;;;;;;21.70;17.40;;;;;;;18.14;82.24;101094.29;180319;1267;44104;-85
2023/05/20 10:34:23;;;;;;;27.00;19.20;;;;;;;18.20;82.19;101086.41;180350;1267;47394;-85
2023/05/20 10:38:26;;;;;;;30.20;20.50;;;;;;;18.22;81.92;101089.07;180229;1267;43806;-85
2023/05/20 10:42:29;;;;;;;23.70;17.20;;;;;;;18.28;82.63;101083.96;180222;1266;59631;-85
2023/05/20 10:46:34;;;;;;;22.00;16.10;;;;;;;18.43;83.19;101075.91;180331;1266;44108;-85
2023/05/20 10:51:04;;;;;;;23.00;18.50;;;;;;;18.63;81.23;101074.95;180241;1266;43840;-83
2023/05/20 10:55:18;;;;;;;24.90;18.50;;;;;;;18.72;80.65;101073.89;180888;1260;43672;-86
2023/05/20 10:59:21;;;;;;;27.50;20.80;;;;;;;18.84;80.28;101070.95;181059;1257;44063;-84
2023/05/20 11:03:25;;;;;;;17.90;15.50;;;;;;;18.86;79.81;101069.92;181034;1259;60831;-85
2023/05/20 11:07:29;;;;;;;19.70;15.40;;;;;;;18.66;80.08;101065.70;181041;1259;43892;-87
2023/05/20 11:11:32;;;;;;;21.50;14.90;;;;;;;18.65;81.70;101062.67;181029;1259;46595;-85
2023/05/20 11:15:35;;;;;;;24.00;15.10;;;;;;;18.77;80.93;101055.06;181105;1257;43903;-85
2023/05/20 11:19:38;;;;;;;19.40;13.90;;;;;;;18.87;81.64;101050.17;181336;1257;43874;-84
2023/05/20 11:23:41;;;;;;;17.40;13.70;;;;;;;19.04;81.18;101043.56;181162;1258;58295;-87
2023/05/20 11:27:45;;;;;;;21.00;14.70;;;;;;;19.26;81.59;101040.55;181175;1259;43870;-86
2023/05/20 11:31:51;;;;;;;15.40;13.90;;;;;;;19.44;79.91;101038.44;181222;1258;44230;-86
2023/05/20 11:35:56;;;;;;;16.70;13.90;;;;;;;19.49;79.02;101039.14;181190;1258;44166;-84
2023/05/20 11:40:06;;;;;;;20.70;14.00;;;;;;;19.53;77.90;101035.90;181131;1259;43858;-85
2023/05/20 11:44:13;;;;;;;17.60;12.90;;;;;;;19.53;77.37;101033.16;181037;1257;57947;-85
2023/05/20 11:48:16;;;;;;;16.90;12.90;;;;;;;19.63;78.39;101027.75;181119;1258;44209;-85
2023/05/20 11:52:19;;;;;;;16.90;11.10;;;;;;;19.73;80.04;101024.52;181060;1258;43681;-85
2023/05/20 11:56:22;;;;;;;13.80;11.20;;;;;;;19.89;76.99;101018.21;181044;1258;43828;-85
2023/05/20 12:00:25;;;;;;;14.10;11.80;;;;;;;20.01;76.94;101017.75;181068;1260;43837;-86
2023/05/20 12:04:33;;;;;;;15.00;12.30;;;;;;;20.07;77.80;101019.47;181053;1257;57946;-86
2023/05/20 12:08:36;;;;;;;11.50;9.60;;;;;;;19.95;77.48;101014.45;181059;1257;44104;-86
2023/05/20 12:12:39;;;;;;;14.30;11.80;;;;;;;19.88;77.19;101019.11;181130;1257;44189;-85
2023/05/20 12:16:42;;;;;;;13.40;10.80;;;;;;;20.06;77.69;101010.55;181031;1259;43816;-87
2023/05/20 12:20:45;;;;;;;11.70;8.70;;;;;;;20.14;79.34;101002.14;181108;1259;44196;-86
2023/05/20 12:24:49;;;;;;;11.00;9.80;;;;;;;20.28;77.28;101000.89;181262;1259;57990;-86
2023/05/20 12:28:54;;;;;;;11.30;9.30;;;;;;;20.40;76.29;100998.79;181062;1259;43840;-86
2023/05/20 12:32:57;;;;;;;11.30;8.90;;;;;;;20.28;76.03;100996.94;181136;1259;46932;-89
2023/05/20 12:37:01;;;;;;;15.80;13.10;;;;;;;20.26;75.62;100998.45;181309;1257;44149;-84
2023/05/20 12:41:04;;;;;;;12.40;9.60;;;;;;;20.18;76.76;100996.95;181081;1258;43809;-85
2023/05/20 12:45:08;;;;;;;13.60;10.50;;;;;;;20.00;78.73;100995.05;181049;1259;59651;-84
2023/05/20 12:49:11;;;;;;;14.40;11.00;;;;;;;19.96;78.26;100986.85;180960;1260;43966;-84
2023/05/20 12:53:15;;;;;;;15.40;11.00;;;;;;;20.02;78.86;100979.30;181058;1259;43928;-83
2023/05/20 12:57:18;;;;;;;14.80;11.10;;;;;;;20.23;77.69;100976.66;181179;1259;44306;-85
2023/05/20 13:01:21;;;;;;;13.20;11.20;;;;;;;20.29;78.17;100974.89;181070;1259;43988;-84
2023/05/20 13:05:24;;;;;;;19.20;10.10;;;;;;;20.29;78.96;100972.16;181005;1258;58289;-84
2023/05/20 13:09:27;;;;;;;14.40;11.10;;;;;;;20.15;78.42;100966.52;181221;1257;43759;-84
2023/05/20 13:13:30;;;;;;;11.90;9.70;;;;;;;20.15;79.39;100968.42;181128;1259;43727;-85
2023/05/20 13:17:33;;;;;;;14.00;10.50;;;;;;;20.13;79.81;100963.92;181116;1257;43965;-85
2023/05/20 13:21:36;;;;;;;15.60;11.20;;;;;;;20.17;79.36;100963.77;181071;1259;43797;-86
2023/05/20 13:25:40;;;;;;;13.90;11.20;;;;;;;20.16;78.97;100959.48;181138;1258;57927;-84
2023/05/20 13:29:43;;;;;;;16.70;11.80;;;;;;;20.03;79.72;100963.17;180947;1259;43743;-85
2023/05/20 13:33:46;;;;;;;12.60;10.40;;;;;;;19.83;81.14;100967.73;181020;1258;43822;-86
2023/05/20 13:37:49;;;;;;;12.90;10.80;;;;;;;19.72;81.34;100970.88;181064;1259;43864;-88
2023/05/20 13:41:53;;;;;;;10.70;9.50;;;;;;;19.61;80.28;100975.09;181207;1258;44154;-86
2023/05/20 13:45:56;;;;;;;14.20;11.60;;;;;;;19.56;83.03;100974.38;181149;1259;59315;-85
2023/05/20 13:50:00;;;;;;;11.90;10.20;;;;;;;19.52;84.14;100968.14;181173;1258;44858;-86
2023/05/20 13:54:05;;;;;;;16.00;12.90;;;;;;;19.47;83.05;100966.09;181087;1259;43985;-86
2023/05/20 13:58:08;;;;;;;12.00;9.80;;;;;;;19.56;83.94;100965.79;181213;1257;43891;-87
2023/05/20 14:02:12;;;;;;;14.60;10.80;;;;;;;19.64;83.13;100959.30;181171;1258;43802;-85
2023/05/20 14:06:17;;;;;;;14.00;9.70;;;;;;;19.66;82.63;100951.62;181243;1258;58429;-86
2023/05/20 14:10:20;;;;;;;15.30;12.30;;;;;;;19.58;80.90;100948.14;181209;1257;44007;-85
2023/05/20 14:14:23;;;;;;;21.70;13.00;;;;;;;19.46;82.04;100938.77;181149;1257;44064;-86
2023/05/20 14:18:27;;;;;;;12.80;10.50;;;;;;;19.38;81.89;100930.11;181063;1259;44256;-85
2023/05/20 14:22:30;;;;;;;14.50;11.30;;;;;;;19.42;84.10;100930.39;181116;1258;43921;-85
2023/05/20 14:26:33;;;;;;;14.90;13.00;;;;;;;19.52;83.67;100929.50;181087;1259;59627;-86
2023/05/20 14:30:36;;;;;;;14.80;12.00;;;;;;;19.57;83.60;100923.79;181061;1259;44120;-85
2023/05/20 14:34:40;;;;;;;15.70;13.00;;;;;;;19.66;83.13;100913.46;181104;1259;43867;-85
2023/05/20 14:38:43;;;;;;;15.10;12.80;;;;;;;19.82;81.94;100907.95;181095;1258;44048;-85
2023/05/20 14:42:47;;;;;;;16.80;12.90;;;;;;;19.83;80.57;100901.86;181066;1258;43960;-86
2023/05/20 14:46:50;;;;;;;18.80;14.10;;;;;;;19.85;80.76;100900.30;180948;1259;59753;-87
2023/05/20 14:50:54;;;;;;;20.30;14.50;;;;;;;19.93;81.39;100896.09;181041;1257;43775;-87
2023/05/20 14:54:57;;;;;;;17.00;14.50;;;;;;;19.87;80.48;100892.23;181115;1257;43698;-85
2023/05/20 14:59:00;;;;;;;15.90;12.60;;;;;;;19.79;81.43;100890.56;181042;1260;43810;-85
2023/05/20 15:03:04;;;;;;;18.60;16.40;;;;;;;19.81;82.64;100887.42;181087;1258;43998;-87
2023/05/20 15:07:07;;;;;;;22.70;17.00;;;;;;;19.79;81.50;100890.07;181125;1259;60232;-86
2023/05/20 15:11:10;;;;;;;19.50;15.50;;;;;;;19.75;82.19;100886.65;181169;1257;43864;-86
2023/05/20 15:15:13;;;;;;;24.30;15.10;;;;;;;19.76;83.07;100878.83;181049;1258;44065;-85
2023/05/20 15:19:16;;;;;;;18.00;14.40;;;;;;;19.80;82.30;100876.26;181030;1257;43942;-86
2023/05/20 15:23:20;;;;;;;16.20;12.90;;;;;;;19.85;83.76;100876.39;181005;1259;44254;-86
2023/05/20 15:27:23;;;;;;;18.00;14.60;;;;;;;19.82;83.43;100870.80;181040;1259;58291;-86
2023/05/20 15:31:26;;;;;;;19.70;17.60;;;;;;;19.85;82.08;100863.70;181120;1259;44093;-87
2023/05/20 15:35:30;;;;;;;19.20;14.00;;;;;;;19.91;83.16;100859.11;181212;1257;43718;-86
2023/05/20 15:39:37;;;;;;;19.00;14.10;;;;;;;19.79;83.45;100858.05;181099;1258;44112;-87
2023/05/20 15:43:41;;;;;;;25.70;16.80;;;;;;;19.75;84.52;100854.14;181054;1258;43773;-87
2023/05/20 15:47:44;;;;;;;18.80;14.30;;;;;;;19.80;84.32;100856.42;181037;1259;59238;-87
2023/05/20 15:51:47;;;;;;;18.50;14.80;;;;;;;19.74;84.25;100855.45;181166;1258;43819;-88
2023/05/20 15:56:05;;;;;;;18.00;14.70;;;;;;;19.79;83.45;100845.80;181153;1258;43974;-89
2023/05/20 16:00:09;;;;;;;19.00;15.70;;;;;;;19.91;83.64;100840.61;181174;1259;44276;-86
2023/05/20 16:04:12;;;;;;;20.30;16.00;;;;;;;20.11;84.08;100833.60;181026;1259;43847;-88
2023/05/20 16:08:16;;;;;;;21.80;15.80;;;;;;;20.27;83.28;100826.91;180908;1259;58183;-88
2023/05/20 16:12:19;;;;;;;20.00;16.20;;;;;;;20.35;83.24;100828.17;180931;1258;44056;-86
2023/05/20 16:16:23;;;;;;;31.80;25.50;;;;;;;20.35;83.57;100821.27;181030;1258;43835;-86
2023/05/20 16:20:27;;;;;;;23.90;19.40;;;;;;;20.31;83.47;100821.25;181181;1259;43749;-87
2023/05/20 16:24:30;;;;;;;79.20;56.00;;;;;;;20.27;83.51;100817.65;181104;1259;43820;-87
2023/05/20 16:28:33;;;;;;;31.50;26.80;;;;;;;20.23;83.75;100815.42;181126;1258;56936;-88
2023/05/20 16:32:36;;;;;;;31.50;24.40;;;;;;;20.12;83.84;100810.17;181083;1258;43946;-88
2023/05/20 16:36:39;;;;;;;37.30;27.20;;;;;;;20.08;85.12;100809.29;180929;1258;43737;-86
2023/05/20 16:40:43;;;;;;;44.70;36.40;;;;;;;20.04;85.50;100803.58;181038;1259;44090;-86
2023/05/20 16:44:49;;;;;;;29.70;22.40;;;;;;;20.05;86.47;100799.19;180978;1259;44059;-87
2023/05/20 16:48:52;;;;;;;31.10;18.90;;;;;;;20.02;87.45;100800.89;181025;1259;59233;-86
2023/05/20 16:52:57;;;;;;;22.90;16.30;;;;;;;19.92;88.35;100799.48;181001;1259;44206;-85
2023/05/20 16:57:05;;;;;;;18.50;15.90;;;;;;;19.86;89.70;100800.60;180871;1259;230029;-87
2023/05/20 17:01:08;;;;;;;40.20;18.80;;;;;;;19.78;90.91;100801.57;181076;1259;43922;-86
2023/05/20 17:05:11;;;;;;;42.50;17.90;;;;;;;19.69;91.88;100802.64;180979;1259;43980;-86
2023/05/20 17:09:18;;;;;;;29.00;20.70;;;;;;;19.61;93.00;100802.46;180955;1258;57971;-87
2023/05/20 17:13:21;;;;;;;25.20;19.60;;;;;;;19.66;93.67;100796.51;181150;1257;43808;-87
2023/05/20 17:17:25;;;;;;;25.10;20.80;;;;;;;19.78;93.24;100796.60;181162;1259;43732;-87
2023/05/20 17:21:28;;;;;;;32.60;22.30;;;;;;;19.83;92.45;100796.73;180915;1259;43847;-86
2023/05/20 17:25:31;;;;;;;26.90;20.30;;;;;;;19.78;92.15;100789.92;180984;1259;43784;-86
2023/05/20 17:29:34;;;;;;;30.70;19.30;;;;;;;19.76;91.92;100790.30;181022;1259;60126;-87
2023/05/20 17:33:37;;;;;;;22.50;16.20;;;;;;;19.72;92.02;100786.23;180983;1259;44239;-87
2023/05/20 17:37:41;;;;;;;30.40;18.50;;;;;;;19.67;92.27;100785.05;180988;1260;44051;-87
2023/05/20 17:41:44;;;;;;;32.40;22.10;;;;;;;19.68;91.79;100784.88;181049;1257;44095;-87
2023/05/20 17:45:48;;;;;;;26.70;21.40;;;;;;;19.65;91.99;100786.53;181129;1257;43835;-85
2023/05/20 17:49:51;;;;;;;25.30;18.40;;;;;;;19.58;92.90;100783.38;181033;1260;59546;-87
2023/05/20 17:53:55;;;;;;;22.20;17.40;;;;;;;19.55;92.74;100779.47;181099;1259;43841;-87
2023/05/20 17:58:02;;;;;;;26.20;21.70;;;;;;;19.52;92.52;100779.45;181285;1258;43876;-87
2023/05/20 18:02:05;;;;;;;22.00;18.50;;;;;;;19.48;92.68;100785.58;181068;1257;44183;-87
2023/05/20 18:06:09;;;;;;;27.50;19.50;;;;;;;19.31;93.58;100787.96;180994;1258;44067;-85
2023/05/20 18:10:13;;;;;;;22.80;18.50;;;;;;;19.10;94.48;100782.12;181184;1259;58483;-87
2023/05/20 18:14:17;;;;;;;23.20;18.10;;;;;;;19.00;95.25;100783.44;181100;1257;44194;-86